Time;durP1;ratioP1;P1;durP2;ratioP2;P2;SDS_P1;SDS_P2;PMS_P1;PMS_P2;Temp;Humidity;BMP_temperature;BMP_pressure;BME280_temperature;BME280_humidity;BME280_pressure;Samples;Min_cycle;Max_cycle;Signal;HPM_P1;HPM_P2
2021/09/01 00:02:12;;;;;;;11.35;6.20;;;;;;;11.19;100.00;98921.66;1713043;83;20933;-68
2021/09/01 00:04:46;;;;;;;12.95;6.60;;;;;;;11.17;100.00;98918.44;1688337;83;20907;-67
2021/09/01 00:07:18;;;;;;;13.28;6.60;;;;;;;11.16;100.00;98917.41;1697163;83;20895;-67
2021/09/01 00:09:48;;;;;;;12.55;6.30;;;;;;;11.14;100.00;98919.68;1687244;83;21230;-67
2021/09/01 00:12:20;;;;;;;9.18;5.80;;;;;;;11.10;100.00;98916.80;1685164;83;22822;-68
2021/09/01 00:14:48;;;;;;;;;;;;;;;11.06;100.00;98913.11;1700087;83;21672;-68
2021/09/01 00:17:17;;;;;;;11.60;6.50;;;;;;;11.04;100.00;98917.33;1685476;83;20100;-68
2021/09/01 00:19:48;;;;;;;9.33;5.40;;;;;;;11.00;100.00;98912.27;1661188;85;20959;-67
2021/09/01 00:22:18;;;;;;;17.80;5.67;;;;;;;10.99;100.00;98914.20;1701970;83;21179;-67
2021/09/01 00:24:50;;;;;;;13.78;6.25;;;;;;;10.99;100.00;98904.59;1678450;83;21539;-67
2021/09/01 00:27:21;;;;;;;10.13;5.65;;;;;;;10.98;100.00;98907.11;1704958;83;21116;-67
2021/09/01 00:29:54;;;;;;;8.65;5.78;;;;;;;10.97;100.00;98909.64;1696847;83;20937;-66
2021/09/01 00:32:26;;;;;;;11.12;6.35;;;;;;;10.96;100.00;98902.55;1702841;83;20860;-67
2021/09/01 00:35:03;;;;;;;9.20;6.17;;;;;;;10.96;100.00;98904.48;1702146;83;21166;-66
2021/09/01 00:37:33;;;;;;;15.32;6.08;;;;;;;10.93;100.00;98903.21;1706445;83;21441;-66
2021/09/01 00:40:04;;;;;;;8.15;6.08;;;;;;;10.92;100.00;98907.09;1700277;83;21458;-66
2021/09/01 00:42:38;;;;;;;10.68;5.80;;;;;;;10.93;100.00;98899.66;1694998;83;20930;-66
2021/09/01 00:45:09;;;;;;;8.75;6.03;;;;;;;10.94;100.00;98902.64;1690784;83;21075;-66
2021/09/01 00:47:43;;;;;;;12.30;5.83;;;;;;;10.97;100.00;98903.34;1708739;83;21090;-66
2021/09/01 00:50:18;;;;;;;17.48;6.53;;;;;;;10.99;100.00;98900.47;1692724;83;20951;-65
2021/09/01 00:52:50;;;;;;;10.35;6.25;;;;;;;11.03;100.00;98900.05;1671770;83;21035;-66
2021/09/01 00:55:28;;;;;;;12.88;5.75;;;;;;;11.07;100.00;98897.43;1719292;83;20953;-65
2021/09/01 00:58:03;;;;;;;8.20;5.78;;;;;;;11.11;100.00;98897.00;1671944;83;20907;-66
2021/09/01 01:01:34;;;;;;;9.50;6.17;;;;;;;11.13;100.00;98894.16;1694671;83;21144;-66
2021/09/01 01:03:13;;;;;;;9.88;5.78;;;;;;;11.16;100.00;98889.93;1701811;83;20968;-67
2021/09/01 01:05:45;;;;;;;10.78;5.55;;;;;;;11.17;100.00;98899.78;1655755;83;21444;-67
2021/09/01 01:08:14;;;;;;;10.13;5.90;;;;;;;11.20;100.00;98898.55;1700312;82;21482;-67
2021/09/01 01:10:49;;;;;;;12.18;4.97;;;;;;;11.23;100.00;98887.45;1690589;83;20890;-67
2021/09/01 01:13:20;;;;;;;17.25;6.50;;;;;;;11.24;100.00;98886.31;1682489;83;21135;-67
2021/09/01 01:15:50;;;;;;;10.38;5.72;;;;;;;11.22;100.00;98894.89;1696716;83;20977;-67
2021/09/01 01:18:21;;;;;;;13.35;5.22;;;;;;;11.18;100.00;98889.83;1677867;83;21486;-67
2021/09/01 01:20:56;;;;;;;;;;;;;;;11.15;100.00;98886.38;1676493;83;21448;-67
2021/09/01 01:23:23;;;;;;;10.82;5.83;;;;;;;11.11;100.00;98882.70;1668712;83;20145;-66
2021/09/01 01:25:56;;;;;;;12.90;6.17;;;;;;;11.07;100.00;98889.19;1705538;83;21148;-66
2021/09/01 01:28:26;;;;;;;8.63;5.10;;;;;;;11.04;100.00;98882.99;1704385;83;20921;-66
2021/09/01 01:30:57;;;;;;;8.28;4.70;;;;;;;11.02;100.00;98876.46;1713462;83;20926;-66
2021/09/01 01:33:31;;;;;;;11.30;5.28;;;;;;;11.01;100.00;98876.80;1692916;83;20943;-66
2021/09/01 01:36:05;;;;;;;11.63;6.17;;;;;;;10.99;100.00;98875.75;1702963;84;20867;-66
2021/09/01 01:38:32;;;;;;;7.28;5.42;;;;;;;10.98;100.00;98867.28;1706979;83;21687;-66
2021/09/01 01:41:06;;;;;;;9.40;5.35;;;;;;;10.99;100.00;98862.02;1707074;82;21020;-67
2021/09/01 01:43:37;;;;;;;9.70;5.22;;;;;;;10.98;100.00;98863.73;1705979;83;20989;-66
2021/09/01 01:46:05;;;;;;;13.40;5.70;;;;;;;10.96;100.00;98859.98;1675983;83;21505;-66
2021/09/01 01:48:40;;;;;;;;;;;;;;;10.98;100.00;98865.91;1701883;83;20923;-67
2021/09/01 01:51:06;;;;;;;9.35;4.70;;;;;;;10.96;100.00;98863.30;1702794;83;21162;-66
2021/09/01 01:53:33;;;;;;;8.55;5.00;;;;;;;10.90;100.00;98860.75;1712100;83;20988;-67
2021/09/01 01:56:05;;;;;;;9.33;5.25;;;;;;;10.86;100.00;98857.06;1697271;83;20976;-66
2021/09/01 01:58:40;;;;;;;12.33;5.90;;;;;;;10.84;100.00;98855.78;1696647;83;20954;-66
2021/09/01 02:01:12;;;;;;;8.38;4.45;;;;;;;10.82;100.00;98856.12;1702891;83;20878;-67
2021/09/01 02:03:45;;;;;;;10.00;4.37;;;;;;;10.80;100.00;98854.84;1693269;83;21170;-66
2021/09/01 02:06:14;;;;;;;10.60;5.22;;;;;;;10.79;100.00;98850.48;1695715;83;21630;-66
2021/09/01 02:08:47;;;;;;;14.65;5.55;;;;;;;10.77;100.00;98849.45;1658567;83;20951;-66
2021/09/01 02:11:21;;;;;;;12.82;4.60;;;;;;;10.75;100.00;98842.69;1696442;83;20941;-66
2021/09/01 02:13:53;;;;;;;11.38;4.47;;;;;;;10.73;100.00;98846.33;1698519;83;20959;-66
2021/09/01 02:16:26;;;;;;;7.05;3.92;;;;;;;10.72;100.00;98851.59;1716544;83;21417;-65
2021/09/01 02:19:03;;;;;;;9.20;4.45;;;;;;;10.69;100.00;98841.27;1696745;83;21000;-66
2021/09/01 02:21:37;;;;;;;11.48;4.25;;;;;;;10.66;100.00;98838.62;1699038;83;20898;-65
2021/09/01 02:24:10;;;;;;;7.25;4.33;;;;;;;10.65;100.00;98837.59;1698156;83;20996;-65
2021/09/01 02:26:48;;;;;;;8.40;4.95;;;;;;;10.62;100.00;98831.39;1696966;83;20901;-66
2021/09/01 02:29:19;;;;;;;8.98;5.40;;;;;;;10.61;100.00;98833.90;1716880;83;21143;-66
2021/09/01 02:31:59;;;;;;;15.50;4.95;;;;;;;10.59;100.00;98837.78;1701624;83;20899;-67
2021/09/01 02:34:33;;;;;;;8.18;4.75;;;;;;;10.61;100.00;98838.02;1710833;83;21088;-68
2021/09/01 02:37:09;;;;;;;8.28;4.87;;;;;;;10.58;100.00;98843.03;1696127;83;21567;-67
2021/09/01 02:39:40;;;;;;;7.33;4.42;;;;;;;10.57;100.00;98839.25;1673301;84;21451;-67
2021/09/01 02:42:11;;;;;;;;;;;;;;;10.55;100.00;98837.41;1697098;83;21186;-66
2021/09/01 02:44:48;;;;;;;6.83;4.30;;;;;;;10.53;100.00;98839.67;1670245;83;20148;-66
2021/09/01 02:47:22;;;;;;;8.13;4.25;;;;;;;10.52;100.00;98837.50;1700786;83;21525;-67
2021/09/01 02:49:52;;;;;;;7.75;4.60;;;;;;;10.53;100.00;98840.48;1675624;83;20941;-66
2021/09/01 02:52:21;;;;;;;12.35;4.37;;;;;;;10.53;100.00;98842.42;1697609;83;20881;-66
2021/09/01 02:54:51;;;;;;;6.60;4.15;;;;;;;10.52;100.00;98836.13;1707176;83;21110;-67
2021/09/01 02:57:21;;;;;;;8.45;4.28;;;;;;;10.52;100.00;98840.24;1708184;83;20949;-67
2021/09/01 02:59:58;;;;;;;8.65;4.28;;;;;;;10.54;100.00;98838.54;1669345;84;21601;-67
2021/09/01 03:02:27;;;;;;;6.03;4.10;;;;;;;10.55;100.00;98834.09;1706153;83;21487;-68
2021/09/01 03:04:56;;;;;;;8.75;4.58;;;;;;;10.60;100.00;98833.09;1695645;83;20993;-68
2021/09/01 03:07:23;;;;;;;8.28;4.28;;;;;;;10.64;100.00;98829.92;1685836;83;21167;-67
2021/09/01 03:09:51;;;;;;;8.43;4.65;;;;;;;10.71;100.00;98836.25;1697734;83;21626;-67
2021/09/01 03:12:20;;;;;;;9.30;4.65;;;;;;;10.77;100.00;98826.69;1696497;83;20925;-68
2021/09/01 03:14:53;;;;;;;9.13;4.95;;;;;;;10.85;100.00;98827.99;1718967;83;20905;-67
2021/09/01 03:17:24;;;;;;;8.93;4.80;;;;;;;10.96;100.00;98827.59;1689993;83;21006;-67
2021/09/01 03:19:54;;;;;;;9.55;5.28;;;;;;;11.06;100.00;98818.34;1658274;84;25299;-68
2021/09/01 03:22:26;;;;;;;8.70;5.33;;;;;;;11.13;100.00;98816.44;1669094;84;20976;-68
2021/09/01 03:24:59;;;;;;;6.65;4.70;;;;;;;11.18;100.00;98821.72;1684529;85;21016;-68
2021/09/01 03:27:29;;;;;;;7.35;4.83;;;;;;;11.25;100.00;98817.29;1657546;84;20974;-68
2021/09/01 03:30:01;;;;;;;10.30;4.75;;;;;;;11.31;100.00;98806.89;1704809;83;21038;-67
2021/09/01 03:32:32;;;;;;;8.33;4.85;;;;;;;11.35;100.00;98807.02;1691543;83;20985;-67
2021/09/01 03:35:06;;;;;;;12.88;4.28;;;;;;;11.39;100.00;98805.20;1696101;83;21106;-68
2021/09/01 03:37:33;;;;;;;12.75;5.47;;;;;;;11.41;100.00;98796.05;1662640;84;21046;-67
2021/09/01 03:40:08;;;;;;;8.68;4.65;;;;;;;11.45;100.00;98805.22;1697087;83;21001;-67
2021/09/01 03:42:40;;;;;;;10.35;5.65;;;;;;;11.47;100.00;98805.69;1707814;83;21683;-67
2021/09/01 03:45:12;;;;;;;7.08;4.60;;;;;;;11.45;100.00;98807.97;1688847;83;21836;-66
2021/09/01 03:47:46;;;;;;;13.32;4.78;;;;;;;11.43;100.00;98804.75;1699482;83;20929;-66
2021/09/01 03:50:19;;;;;;;8.83;5.10;;;;;;;11.40;100.00;98797.99;1682997;83;20913;-67
2021/09/01 03:52:56;;;;;;;8.70;5.95;;;;;;;11.38;100.00;98810.47;1700699;83;21454;-67
2021/09/01 03:55:24;;;;;;;13.78;7.47;;;;;;;11.38;100.00;98814.59;1716036;81;20965;-68
2021/09/01 03:57:52;;;;;;;15.48;6.70;;;;;;;11.40;100.00;98810.93;1719156;80;21524;-68
2021/09/01 04:00:19;;;;;;;9.70;5.83;;;;;;;11.47;100.00;98812.55;1726263;81;21539;-68
2021/09/01 04:02:46;;;;;;;12.53;6.25;;;;;;;11.51;100.00;98817.03;1707871;81;21542;-68
2021/09/01 04:05:20;;;;;;;11.12;5.90;;;;;;;11.54;100.00;98812.80;1706696;82;21003;-68
2021/09/01 04:07:49;;;;;;;8.55;5.37;;;;;;;11.58;100.00;98817.25;1734157;81;22141;-68
2021/09/01 04:10:17;;;;;;;6.87;5.33;;;;;;;11.65;100.00;98818.08;1726543;81;21814;-66
2021/09/01 04:12:50;;;;;;;10.20;5.70;;;;;;;11.68;100.00;98809.14;1738718;81;20984;-66
2021/09/01 04:15:17;;;;;;;9.20;5.90;;;;;;;11.72;100.00;98807.89;1724160;81;21656;-67
2021/09/01 04:17:47;;;;;;;6.80;5.65;;;;;;;11.78;100.00;98815.61;1745852;81;21008;-67
2021/09/01 04:20:18;;;;;;;12.63;6.25;;;;;;;11.83;100.00;98818.14;1707605;81;21017;-67
2021/09/01 04:22:46;;;;;;;7.62;5.28;;;;;;;11.92;100.00;98818.62;1746489;81;21162;-67
2021/09/01 04:25:16;;;;;;;9.10;5.60;;;;;;;11.99;100.00;98814.73;1743978;80;21052;-67
2021/09/01 04:27:43;;;;;;;7.78;5.70;;;;;;;12.06;100.00;98814.39;1728699;81;21001;-66
2021/09/01 04:30:15;;;;;;;7.80;5.42;;;;;;;12.11;100.00;98810.61;1728559;82;21285;-66
2021/09/01 04:32:45;;;;;;;14.95;6.45;;;;;;;12.16;100.00;98810.36;1740482;81;20966;-67
2021/09/01 04:35:17;;;;;;;12.07;6.00;;;;;;;12.18;100.00;98804.73;1719650;81;21155;-66
2021/09/01 04:37:53;;;;;;;12.03;6.12;;;;;;;12.24;100.00;98806.69;1745674;81;20997;-66
2021/09/01 04:40:26;;;;;;;12.35;7.20;;;;;;;12.27;100.00;98806.57;1734589;81;20957;-67
2021/09/01 04:42:58;;;;;;;11.88;8.08;;;;;;;12.31;100.00;98806.11;1753370;81;20980;-68
2021/09/01 04:45:26;;;;;;;;;;;;;;;12.35;100.00;98802.33;1719444;81;20896;-67
2021/09/01 04:48:01;;;;;;;14.80;7.45;;;;;;;12.42;100.00;98804.50;1742478;81;21106;-68
2021/09/01 04:50:31;;;;;;;12.47;7.45;;;;;;;12.47;100.00;98806.45;1741002;82;21447;-67
2021/09/01 04:53:01;;;;;;;17.35;7.08;;;;;;;12.54;100.00;98810.80;1727253;81;20982;-67
2021/09/01 04:55:28;;;;;;;10.40;7.95;;;;;;;12.65;100.00;98816.63;1723827;81;20901;-66
2021/09/01 04:57:57;;;;;;;16.45;9.95;;;;;;;12.80;100.00;98813.70;1722165;82;21026;-68
2021/09/01 05:00:28;;;;;;;17.12;9.48;;;;;;;12.98;100.00;98817.79;1724556;82;21509;-68
2021/09/01 05:02:58;;;;;;;13.68;9.80;;;;;;;13.16;100.00;98815.01;1729539;82;20925;-67
2021/09/01 05:05:29;;;;;;;14.68;10.85;;;;;;;13.32;100.00;98813.66;1729337;82;20988;-67
2021/09/01 05:08:03;;;;;;;;;;;;;;;13.44;100.00;98804.52;1692680;82;20898;-67
2021/09/01 05:10:33;;;;;;;20.97;11.80;;;;;;;13.55;100.00;98799.52;1740632;82;20166;-67
2021/09/01 05:13:01;;;;;;;18.80;10.80;;;;;;;13.65;100.00;98800.97;1742474;81;20890;-68
2021/09/01 05:15:36;;;;;;;22.30;10.68;;;;;;;13.73;100.00;98800.00;1722978;82;20938;-70
2021/09/01 05:18:11;;;;;;;14.28;8.35;;;;;;;13.84;100.00;98799.70;1738858;82;21033;-67
2021/09/01 05:20:39;;;;;;;13.60;8.28;;;;;;;13.97;100.00;98802.34;1712585;82;20970;-68
2021/09/01 05:23:09;;;;;;;18.32;9.30;;;;;;;14.07;100.00;98808.12;1718735;82;20882;-68
2021/09/01 05:25:57;;;;;;;16.87;8.48;;;;;;;14.21;100.00;98800.78;1714778;81;21522;-69
2021/09/01 05:28:31;;;;;;;12.45;8.08;;;;;;;14.34;100.00;98798.14;1727140;82;21015;-68
2021/09/01 05:31:03;;;;;;;13.58;7.40;;;;;;;14.49;100.00;98793.17;1720544;81;20904;-69
2021/09/01 05:33:34;;;;;;;20.72;7.12;;;;;;;14.62;100.00;98787.53;1720189;81;20962;-68
2021/09/01 05:36:08;;;;;;;12.60;6.67;;;;;;;14.73;100.00;98788.56;1724566;81;21435;-68
2021/09/01 05:38:38;;;;;;;18.12;7.90;;;;;;;14.82;100.00;98785.02;1730942;81;21150;-68
2021/09/01 05:41:10;;;;;;;14.68;7.30;;;;;;;14.94;100.00;98787.64;1711833;82;20894;-68
2021/09/01 05:43:43;;;;;;;13.95;7.90;;;;;;;15.09;100.00;98783.19;1733290;82;21058;-68
2021/09/01 05:46:16;;;;;;;20.32;12.37;;;;;;;15.24;98.90;98783.69;1718580;82;21006;-68
2021/09/01 05:48:44;;;;;;;39.33;14.25;;;;;;;15.32;96.88;98784.05;1723762;81;20925;-68
2021/09/01 05:51:17;;;;;;;36.50;12.23;;;;;;;15.38;97.64;98784.55;1722642;81;21108;-68
2021/09/01 05:53:54;;;;;;;19.92;8.25;;;;;;;15.42;96.56;98782.66;1711095;81;20986;-68
2021/09/01 05:56:30;;;;;;;29.63;10.85;;;;;;;15.44;95.64;98782.51;1690230;81;21043;-69
2021/09/01 05:59:05;;;;;;;19.40;11.30;;;;;;;15.44;95.40;98776.17;1713392;82;20967;-68
2021/09/01 06:01:43;;;;;;;30.27;12.53;;;;;;;15.49;94.87;98768.38;1728216;81;21084;-69
2021/09/01 06:04:13;;;;;;;28.90;10.58;;;;;;;15.58;95.48;98769.56;1707542;82;20924;-69
2021/09/01 06:06:52;;;;;;;39.88;13.90;;;;;;;15.72;94.09;98773.14;1742456;82;21478;-68
2021/09/01 06:09:25;;;;;;;40.88;12.88;;;;;;;15.83;93.41;98779.66;1690865;82;21490;-68
2021/09/01 06:11:53;;;;;;;39.65;12.75;;;;;;;15.94;93.41;98775.11;1697787;82;20965;-69
2021/09/01 06:14:25;;;;;;;48.25;13.18;;;;;;;16.06;92.42;98780.45;1710096;82;20936;-68
2021/09/01 06:16:53;;;;;;;71.07;13.93;;;;;;;16.15;92.93;98782.97;1687234;82;21018;-69
2021/09/01 06:19:23;;;;;;;61.73;12.63;;;;;;;16.20;91.76;98777.09;1689280;83;20940;-70
2021/09/01 06:21:53;;;;;;;58.60;11.48;;;;;;;16.27;91.80;98779.97;1726256;82;20952;-69
2021/09/01 06:24:26;;;;;;;26.50;10.75;;;;;;;16.39;91.57;98781.14;1716160;80;21167;-69
2021/09/01 06:26:55;;;;;;;25.23;10.32;;;;;;;16.56;91.39;98782.59;1740189;81;20933;-68
2021/09/01 06:29:25;;;;;;;8.23;5.60;;;;;;;16.77;91.26;98790.41;1740087;80;21227;-70
2021/09/01 06:31:58;;;;;;;7.58;4.55;;;;;;;17.00;88.78;98793.89;1749019;81;20897;-69
2021/09/01 06:34:29;;;;;;;8.30;4.70;;;;;;;17.16;87.45;98788.95;1752010;80;21015;-69
2021/09/01 06:37:03;;;;;;;9.25;4.70;;;;;;;17.35;87.83;98790.73;1748424;81;21471;-69
2021/09/01 06:39:31;;;;;;;9.58;4.72;;;;;;;17.61;87.00;98788.44;1717931;81;21064;-69
2021/09/01 06:42:07;;;;;;;11.90;4.30;;;;;;;17.89;87.45;98785.77;1732140;82;21577;-69
2021/09/01 06:44:42;;;;;;;4.17;3.77;;;;;;;18.14;84.38;98787.55;1717711;82;21509;-70
2021/09/01 06:47:10;;;;;;;4.95;3.72;;;;;;;18.29;83.00;98786.28;1728501;82;20905;-71
2021/09/01 06:49:40;;;;;;;23.07;5.58;;;;;;;18.36;82.43;98787.73;1732563;82;20970;-68
2021/09/01 06:52:07;;;;;;;15.13;6.30;;;;;;;18.42;81.87;98784.20;1725526;81;20950;-68
2021/09/01 06:54:40;;;;;;;32.10;8.60;;;;;;;18.51;81.67;98788.00;1692883;82;20975;-68
2021/09/01 06:57:17;;;;;;;330.60;62.80;;;;;;;18.59;81.69;98786.87;1740162;81;20894;-68
2021/09/01 06:59:47;;;;;;;641.40;112.47;;;;;;;18.66;81.51;98790.31;1732384;81;20946;-68
2021/09/01 07:02:18;;;;;;;231.45;43.90;;;;;;;18.74;80.05;98794.73;1738012;81;20961;-68
2021/09/01 07:04:50;;;;;;;320.75;50.05;;;;;;;18.77;80.69;98795.34;1722665;82;21632;-68
2021/09/01 07:07:18;;;;;;;;;;;;;;;18.85;79.76;98796.98;1722223;81;21421;-69
2021/09/01 07:09:46;;;;;;;15.08;6.47;;;;;;;18.88;78.36;98798.19;1731773;81;20422;-68
2021/09/01 07:12:15;;;;;;;12.25;6.00;;;;;;;18.90;78.99;98799.98;1708009;83;21610;-68
2021/09/01 07:14:49;;;;;;;11.88;5.15;;;;;;;19.04;79.28;98805.63;1735581;81;20924;-68
2021/09/01 07:17:22;;;;;;;;;;;;;;;19.20;79.06;98798.32;1731642;82;20976;-68
2021/09/01 07:19:52;;;;;;;13.40;5.28;;;;;;;19.36;78.89;98804.35;1737962;81;21114;-67
2021/09/01 07:22:25;;;;;;;8.48;4.90;;;;;;;19.51;76.95;98801.02;1727142;82;20916;-67
2021/09/01 07:24:57;;;;;;;7.22;4.78;;;;;;;19.56;76.74;98802.06;1710518;83;20917;-67
2021/09/01 07:27:28;;;;;;;8.95;4.87;;;;;;;19.60;76.70;98802.87;1684276;83;21058;-67
2021/09/01 07:30:02;;;;;;;8.73;5.00;;;;;;;19.62;76.65;98802.67;1679108;83;21007;-67
2021/09/01 07:32:36;;;;;;;8.58;4.78;;;;;;;19.66;76.16;98807.62;1655798;83;21069;-68
2021/09/01 07:35:07;;;;;;;9.43;5.28;;;;;;;19.70;75.79;98807.04;1657522;83;20974;-69
2021/09/01 07:37:43;;;;;;;9.35;5.53;;;;;;;19.74;75.41;98810.63;1714816;81;21047;-68
2021/09/01 07:40:17;;;;;;;10.58;5.28;;;;;;;19.82;75.23;98800.30;1705817;83;21012;-67
2021/09/01 07:42:47;;;;;;;17.25;5.55;;;;;;;19.96;71.79;98803.70;1697055;83;21471;-68
2021/09/01 07:45:17;;;;;;;11.35;4.42;;;;;;;20.10;72.52;98802.33;1682045;83;20953;-68
2021/09/01 07:47:54;;;;;;;7.35;4.58;;;;;;;20.36;70.33;98806.09;1691706;82;20910;-68
2021/09/01 07:50:28;;;;;;;16.23;5.95;;;;;;;20.74;71.39;98802.30;1710122;81;20992;-68
2021/09/01 07:53:04;;;;;;;17.07;5.92;;;;;;;21.22;66.11;98799.77;1738322;81;21542;-68
2021/09/01 07:55:33;;;;;;;10.93;5.97;;;;;;;21.47;66.41;98793.25;1740892;81;20955;-68
2021/09/01 07:58:06;;;;;;;6.12;4.37;;;;;;;21.61;64.76;98795.97;1742719;81;21182;-68
2021/09/01 08:00:35;;;;;;;7.80;4.83;;;;;;;21.77;63.75;98796.28;1749205;81;21673;-68
2021/09/01 08:03:05;;;;;;;5.58;4.25;;;;;;;21.83;62.34;98793.84;1728236;81;21570;-68
2021/09/01 08:05:40;;;;;;;4.67;3.75;;;;;;;21.89;59.91;98790.21;1734383;81;21625;-67
2021/09/01 08:08:10;;;;;;;7.30;3.90;;;;;;;22.01;58.24;98788.91;1727079;82;21483;-68
2021/09/01 08:10:45;;;;;;;4.75;3.87;;;;;;;22.11;59.47;98786.66;1712114;82;21000;-68
2021/09/01 08:13:14;;;;;;;4.62;4.12;;;;;;;22.29;59.12;98791.51;1689793;83;20964;-68
2021/09/01 08:15:44;;;;;;;6.83;4.37;;;;;;;22.31;56.57;98786.30;1675539;85;21072;-68
2021/09/01 08:18:16;;;;;;;11.25;5.10;;;;;;;22.27;57.11;98780.55;1739413;81;20956;-70
2021/09/01 08:20:45;;;;;;;7.35;4.60;;;;;;;22.35;57.79;98789.86;1737566;81;20984;-69
2021/09/01 08:23:16;;;;;;;9.13;4.90;;;;;;;22.48;59.31;98784.55;1739576;82;21099;-68
2021/09/01 08:25:44;;;;;;;5.78;4.40;;;;;;;22.69;59.29;98780.73;1745798;81;21489;-68
2021/09/01 08:28:15;;;;;;;7.17;4.72;;;;;;;23.09;57.45;98782.52;1733633;81;20876;-69
2021/09/01 08:30:44;;;;;;;12.98;5.17;;;;;;;23.45;56.60;98780.05;1726386;81;21097;-68
2021/09/01 08:33:20;;;;;;;9.20;6.72;;;;;;;23.84;53.92;98774.69;1727607;81;21012;-69
2021/09/01 08:35:48;;;;;;;9.93;6.17;;;;;;;24.30;53.93;98775.36;1746191;81;21146;-68
2021/09/01 08:38:19;;;;;;;8.83;5.85;;;;;;;24.75;52.81;98773.56;1726374;82;20950;-68
2021/09/01 08:40:51;;;;;;;10.75;5.85;;;;;;;25.09;52.26;98780.33;1716504;82;21054;-69
2021/09/01 08:43:24;;;;;;;8.28;5.85;;;;;;;25.20;49.20;98777.30;1723650;81;21109;-69
2021/09/01 08:46:02;;;;;;;8.20;5.47;;;;;;;24.83;49.12;98775.02;1748621;81;20952;-69
2021/09/01 08:48:23;;;;;;;8.53;5.65;;;;;;;24.61;50.44;98778.03;1727330;81;20888;-69
2021/09/01 08:50:59;;;;;;;4.85;4.12;;;;;;;24.44;51.54;98779.14;1726245;81;20994;-68
2021/09/01 08:53:25;;;;;;;10.30;4.83;;;;;;;24.24;51.57;98775.66;1717721;82;21494;-68
2021/09/01 08:55:53;;;;;;;7.50;5.03;;;;;;;23.81;51.87;98780.34;1739251;81;20940;-69
2021/09/01 08:58:19;;;;;;;7.67;4.92;;;;;;;23.33;52.60;98783.59;1733715;81;21008;-69
2021/09/01 09:00:45;;;;;;;8.98;5.90;;;;;;;22.97;53.49;98781.85;1735025;81;21284;-68
2021/09/01 09:03:19;;;;;;;7.30;4.83;;;;;;;22.76;54.46;98775.06;1707516;82;20940;-68
2021/09/01 09:05:50;;;;;;;7.17;4.42;;;;;;;22.59;54.25;98777.43;1722651;81;20900;-69
2021/09/01 09:08:23;;;;;;;8.60;4.28;;;;;;;22.81;56.02;98779.44;1738209;81;21470;-69
2021/09/01 09:10:57;;;;;;;5.83;4.05;;;;;;;23.42;55.15;98776.08;1740764;81;21046;-69
2021/09/01 09:13:34;;;;;;;7.25;4.25;;;;;;;23.99;52.66;98771.85;1718914;80;21498;-70
2021/09/01 09:16:09;;;;;;;6.62;4.35;;;;;;;24.29;52.26;98767.38;1724108;81;21117;-68
2021/09/01 09:18:40;;;;;;;7.67;5.10;;;;;;;24.43;50.60;98767.13;1681022;82;21525;-69
2021/09/01 09:21:20;;;;;;;8.00;4.22;;;;;;;24.58;51.04;98774.68;1742230;81;21118;-68
2021/09/01 09:23:53;;;;;;;7.97;4.47;;;;;;;24.84;48.60;98779.38;1755127;81;20861;-69
2021/09/01 09:26:31;;;;;;;6.25;4.35;;;;;;;25.00;49.33;98776.69;1715363;81;20897;-69
2021/09/01 09:29:17;;;;;;;5.00;3.77;;;;;;;25.35;49.02;98775.78;1707961;82;20933;-69
2021/09/01 09:32:10;;;;;;;4.87;3.92;;;;;;;25.77;49.38;98781.70;1718296;82;20982;-68
2021/09/01 09:34:42;;;;;;;7.70;3.90;;;;;;;26.25;47.53;98773.28;1739909;81;21521;-69
2021/09/01 09:37:16;;;;;;;11.12;4.53;;;;;;;26.35;46.54;98774.28;1702267;82;20860;-66
2021/09/01 09:39:52;;;;;;;6.50;4.35;;;;;;;25.99;47.13;98772.33;1707143;82;21153;-69
2021/09/01 09:42:41;;;;;;;7.15;4.20;;;;;;;25.39;46.72;98770.09;1709396;81;20980;-68
2021/09/01 09:45:26;;;;;;;5.75;3.50;;;;;;;24.71;47.92;98769.23;1738279;80;20964;-68
2021/09/01 09:47:58;;;;;;;5.72;3.83;;;;;;;24.13;48.04;98776.44;1737944;81;22184;-67
2021/09/01 09:50:28;;;;;;;4.12;3.40;;;;;;;23.73;49.94;98784.47;1718388;81;21070;-68
2021/09/01 09:53:00;;;;;;;6.03;4.00;;;;;;;23.58;50.79;98777.69;1720835;81;21113;-68
2021/09/01 09:55:34;;;;;;;4.75;3.70;;;;;;;23.69;51.52;98779.70;1731857;81;20924;-68
2021/09/01 09:58:08;;;;;;;5.47;3.80;;;;;;;23.70;52.04;98774.28;1743801;81;21539;-67
2021/09/01 10:00:41;;;;;;;6.95;3.65;;;;;;;23.74;51.58;98777.64;1731358;81;21108;-68
2021/09/01 10:03:12;;;;;;;4.25;3.40;;;;;;;23.68;51.55;98769.71;1726158;82;20901;-68
2021/09/01 10:05:40;;;;;;;5.35;3.67;;;;;;;23.60;50.00;98768.86;1719486;83;21104;-64
2021/09/01 10:08:12;;;;;;;7.47;3.47;;;;;;;23.78;51.88;98763.77;1696857;83;21423;-67
2021/09/01 10:10:46;;;;;;;5.12;3.10;;;;;;;24.38;51.87;98767.62;1656222;85;20940;-68
2021/09/01 10:13:13;;;;;;;6.58;2.77;;;;;;;25.06;48.42;98764.34;1695872;83;21007;-69
2021/09/01 10:15:42;;;;;;;5.17;2.60;;;;;;;25.57;47.00;98759.23;1704157;83;20945;-68
2021/09/01 10:18:13;;;;;;;4.50;2.70;;;;;;;25.84;45.29;98765.46;1701828;82;21032;-69
2021/09/01 10:20:44;;;;;;;;;;;;;;;25.98;44.00;98759.50;1684391;81;20887;-69
2021/09/01 10:23:18;;;;;;;4.33;3.17;;;;;;;25.95;45.70;98760.99;1729419;81;20450;-69
2021/09/01 10:25:53;;;;;;;4.05;3.20;;;;;;;25.99;44.17;98752.65;1726600;81;20954;-69
2021/09/01 10:28:34;;;;;;;4.03;3.30;;;;;;;25.99;44.79;98754.67;1725706;82;21044;-71
2021/09/01 10:31:17;;;;;;;3.40;2.50;;;;;;;26.03;43.91;98753.15;1749483;82;21133;-68
2021/09/01 10:33:53;;;;;;;3.75;2.27;;;;;;;26.21;43.89;98743.04;1728880;82;21093;-69
2021/09/01 10:36:33;;;;;;;2.42;1.92;;;;;;;26.52;42.46;98739.26;1699615;82;20964;-69
2021/09/01 10:39:17;;;;;;;3.08;2.05;;;;;;;26.91;39.07;98739.57;1708735;82;21049;-70
2021/09/01 10:41:47;;;;;;;4.90;1.82;;;;;;;27.22;38.70;98738.48;1700224;82;20990;-70
2021/09/01 10:44:27;;;;;;;3.17;2.00;;;;;;;27.33;38.66;98739.57;1722462;81;21159;-70
2021/09/01 10:47:02;;;;;;;3.67;2.30;;;;;;;27.43;39.58;98737.05;1693004;82;21058;-69
2021/09/01 10:49:57;;;;;;;3.25;2.10;;;;;;;27.57;39.34;98738.03;1719898;82;21440;-70
2021/09/01 10:52:47;;;;;;;2.67;1.82;;;;;;;27.79;37.47;98738.77;1705547;83;20984;-69
2021/09/01 10:55:21;;;;;;;2.27;2.08;;;;;;;27.73;37.74;98744.84;1676445;81;20939;-69
2021/09/01 10:58:21;;;;;;;3.17;2.20;;;;;;;27.75;36.35;98746.55;1680733;81;21869;-69
2021/09/01 11:00:57;;;;;;;2.60;1.82;;;;;;;27.50;38.32;98748.11;1714981;81;21021;-69
2021/09/01 11:03:39;;;;;;;5.08;2.60;;;;;;;27.17;36.91;98745.28;1741112;80;20934;-68
2021/09/01 11:06:14;;;;;;;8.73;2.87;;;;;;;26.82;38.50;98747.88;1755082;81;20932;-69
2021/09/01 11:09:11;;;;;;;6.75;3.22;;;;;;;26.38;42.00;98750.89;1755241;81;20881;-67
2021/09/01 11:11:57;;;;;;;4.67;3.17;;;;;;;26.18;41.56;98752.36;1734461;81;20911;-68
2021/09/01 11:14:36;;;;;;;4.08;2.92;;;;;;;26.20;41.71;98751.92;1734277;80;20950;-69
2021/09/01 11:17:10;;;;;;;4.72;2.83;;;;;;;26.11;41.62;98751.13;1687714;82;21049;-70
2021/09/01 11:19:42;;;;;;;4.58;3.00;;;;;;;25.93;42.06;98754.40;1731014;81;20970;-70
2021/09/01 11:22:15;;;;;;;3.92;2.75;;;;;;;25.80;42.15;98754.91;1710638;82;20854;-69
2021/09/01 11:24:48;;;;;;;3.80;3.33;;;;;;;25.76;42.94;98761.84;1696181;82;20912;-67
2021/09/01 11:27:29;;;;;;;4.03;2.50;;;;;;;25.73;42.90;98759.91;1729154;82;21501;-69
2021/09/01 11:30:09;;;;;;;4.33;2.67;;;;;;;25.72;40.70;98759.73;1723316;82;21464;-69
2021/09/01 11:32:40;;;;;;;3.45;2.67;;;;;;;25.52;42.62;98759.13;1726076;81;21017;-69
2021/09/01 11:35:27;;;;;;;3.37;2.60;;;;;;;25.29;42.86;98760.66;1722239;82;21134;-66
2021/09/01 11:38:05;;;;;;;16.17;2.70;;;;;;;25.07;44.16;98751.09;1714820;81;21071;-69
2021/09/01 11:40:42;;;;;;;2.90;2.52;;;;;;;24.94;44.52;98751.71;1756720;81;20920;-69
2021/09/01 11:43:20;;;;;;;3.22;2.25;;;;;;;24.87;42.63;98750.45;1747151;81;21482;-69
2021/09/01 11:45:50;;;;;;;4.75;2.20;;;;;;;24.74;42.83;98745.93;1734211;81;20957;-69
2021/09/01 11:48:22;;;;;;;5.12;2.20;;;;;;;24.62;42.50;98741.13;1740426;81;21008;-69
2021/09/01 11:50:55;;;;;;;13.58;2.77;;;;;;;24.57;42.68;98736.63;1727667;81;21241;-69
2021/09/01 11:53:28;;;;;;;2.35;1.85;;;;;;;24.64;43.08;98738.69;1729091;81;20901;-67